sensor_id;sensor_type;location;lat;lon;timestamp;P1;durP1;ratioP1;P2;durP2;ratioP2
10446;SDS011;70909;45.768;4.884;2023-06-24T00:01:41;0.10;;;0.10;;
10446;SDS011;70909;45.768;4.884;2023-06-24T00:04:08;0.20;;;0.20;;
10446;SDS011;70909;45.768;4.884;2023-06-24T00:06:35;0.20;;;0.20;;
10446;SDS011;70909;45.768;4.884;2023-06-24T00:09:02;0.20;;;0.20;;
10446;SDS011;70909;45.768;4.884;2023-06-24T00:11:29;0.20;;;0.20;;
10446;SDS011;70909;45.768;4.884;2023-06-24T00:13:57;0.10;;;0.10;;
10446;SDS011;70909;45.768;4.884;2023-06-24T00:16:24;0.20;;;0.20;;
10446;SDS011;70909;45.768;4.884;2023-06-24T00:18:53;0.20;;;0.20;;
10446;SDS011;70909;45.768;4.884;2023-06-24T00:21:23;0.20;;;0.20;;
10446;SDS011;70909;45.768;4.884;2023-06-24T00:23:54;0.20;;;0.20;;
10446;SDS011;70909;45.768;4.884;2023-06-24T00:26:22;0.20;;;0.20;;
10446;SDS011;70909;45.768;4.884;2023-06-24T00:28:48;0.20;;;0.20;;
10446;SDS011;70909;45.768;4.884;2023-06-24T00:31:17;0.20;;;0.20;;
10446;SDS011;70909;45.768;4.884;2023-06-24T00:33:44;0.20;;;0.20;;
10446;SDS011;70909;45.768;4.884;2023-06-24T00:36:11;0.20;;;0.20;;
10446;SDS011;70909;45.768;4.884;2023-06-24T00:38:37;0.20;;;0.20;;
10446;SDS011;70909;45.768;4.884;2023-06-24T00:41:05;0.20;;;0.20;;
10446;SDS011;70909;45.768;4.884;2023-06-24T00:43:33;0.20;;;0.20;;
10446;SDS011;70909;45.768;4.884;2023-06-24T00:46:00;0.20;;;0.20;;
10446;SDS011;70909;45.768;4.884;2023-06-24T00:48:28;0.30;;;0.30;;
10446;SDS011;70909;45.768;4.884;2023-06-24T00:50:56;0.30;;;0.30;;
10446;SDS011;70909;45.768;4.884;2023-06-24T00:53:23;0.20;;;0.20;;
10446;SDS011;70909;45.768;4.884;2023-06-24T00:55:51;0.20;;;0.20;;
10446;SDS011;70909;45.768;4.884;2023-06-24T00:58:19;0.20;;;0.20;;
10446;SDS011;70909;45.768;4.884;2023-06-24T01:00:47;0.20;;;0.20;;
10446;SDS011;70909;45.768;4.884;2023-06-24T01:03:22;0.30;;;0.30;;
10446;SDS011;70909;45.768;4.884;2023-06-24T01:05:51;0.20;;;0.20;;
10446;SDS011;70909;45.768;4.884;2023-06-24T01:08:19;0.20;;;0.20;;
10446;SDS011;70909;45.768;4.884;2023-06-24T01:10:47;0.20;;;0.20;;
10446;SDS011;70909;45.768;4.884;2023-06-24T01:13:15;0.30;;;0.30;;
10446;SDS011;70909;45.768;4.884;2023-06-24T01:15:42;0.20;;;0.20;;
10446;SDS011;70909;45.768;4.884;2023-06-24T01:18:10;0.20;;;0.20;;
10446;SDS011;70909;45.768;4.884;2023-06-24T01:20:44;0.20;;;0.20;;
10446;SDS011;70909;45.768;4.884;2023-06-24T01:23:24;0.20;;;0.20;;
10446;SDS011;70909;45.768;4.884;2023-06-24T01:26:27;0.20;;;0.20;;
10446;SDS011;70909;45.768;4.884;2023-06-24T01:29:20;0.20;;;0.20;;
10446;SDS011;70909;45.768;4.884;2023-06-24T01:32:04;0.30;;;0.30;;
10446;SDS011;70909;45.768;4.884;2023-06-24T01:34:36;0.23;;;0.23;;
10446;SDS011;70909;45.768;4.884;2023-06-24T01:37:10;0.20;;;0.20;;
10446;SDS011;70909;45.768;4.884;2023-06-24T01:39:44;0.30;;;0.30;;
10446;SDS011;70909;45.768;4.884;2023-06-24T01:42:14;0.30;;;0.30;;
10446;SDS011;70909;45.768;4.884;2023-06-24T01:44:43;0.30;;;0.30;;
10446;SDS011;70909;45.768;4.884;2023-06-24T01:47:12;0.30;;;0.30;;
10446;SDS011;70909;45.768;4.884;2023-06-24T01:49:43;0.20;;;0.20;;
10446;SDS011;70909;45.768;4.884;2023-06-24T01:52:12;0.27;;;0.27;;
10446;SDS011;70909;45.768;4.884;2023-06-24T01:54:40;0.20;;;0.20;;
10446;SDS011;70909;45.768;4.884;2023-06-24T01:57:08;0.20;;;0.20;;
10446;SDS011;70909;45.768;4.884;2023-06-24T01:59:38;0.23;;;0.23;;
10446;SDS011;70909;45.768;4.884;2023-06-24T02:02:07;0.30;;;0.30;;
10446;SDS011;70909;45.768;4.884;2023-06-24T02:04:35;0.30;;;0.30;;
10446;SDS011;70909;45.768;4.884;2023-06-24T02:07:04;0.30;;;0.30;;
10446;SDS011;70909;45.768;4.884;2023-06-24T02:09:33;0.30;;;0.30;;
10446;SDS011;70909;45.768;4.884;2023-06-24T02:12:00;0.30;;;0.30;;
10446;SDS011;70909;45.768;4.884;2023-06-24T02:14:28;0.30;;;0.30;;
10446;SDS011;70909;45.768;4.884;2023-06-24T02:16:56;0.27;;;0.27;;
10446;SDS011;70909;45.768;4.884;2023-06-24T02:19:27;0.27;;;0.27;;
10446;SDS011;70909;45.768;4.884;2023-06-24T02:21:58;0.30;;;0.30;;
10446;SDS011;70909;45.768;4.884;2023-06-24T02:24:26;0.30;;;0.30;;
10446;SDS011;70909;45.768;4.884;2023-06-24T02:26:54;0.30;;;0.30;;
10446;SDS011;70909;45.768;4.884;2023-06-24T02:29:24;0.20;;;0.20;;
10446;SDS011;70909;45.768;4.884;2023-06-24T02:31:52;0.30;;;0.30;;
10446;SDS011;70909;45.768;4.884;2023-06-24T02:34:19;0.30;;;0.30;;
10446;SDS011;70909;45.768;4.884;2023-06-24T02:36:46;0.20;;;0.20;;
10446;SDS011;70909;45.768;4.884;2023-06-24T02:39:15;0.30;;;0.30;;
10446;SDS011;70909;45.768;4.884;2023-06-24T02:41:41;0.20;;;0.20;;
10446;SDS011;70909;45.768;4.884;2023-06-24T02:44:09;0.30;;;0.30;;
10446;SDS011;70909;45.768;4.884;2023-06-24T02:46:36;0.30;;;0.30;;
10446;SDS011;70909;45.768;4.884;2023-06-24T02:49:04;0.30;;;0.30;;
10446;SDS011;70909;45.768;4.884;2023-06-24T02:51:31;0.30;;;0.30;;
10446;SDS011;70909;45.768;4.884;2023-06-24T02:53:58;0.30;;;0.30;;
10446;SDS011;70909;45.768;4.884;2023-06-24T02:56:27;0.30;;;0.30;;
10446;SDS011;70909;45.768;4.884;2023-06-24T02:58:54;0.30;;;0.30;;
10446;SDS011;70909;45.768;4.884;2023-06-24T03:01:21;0.40;;;0.40;;
10446;SDS011;70909;45.768;4.884;2023-06-24T03:03:51;0.30;;;0.30;;
10446;SDS011;70909;45.768;4.884;2023-06-24T03:06:19;0.37;;;0.37;;
10446;SDS011;70909;45.768;4.884;2023-06-24T03:08:47;0.30;;;0.30;;
10446;SDS011;70909;45.768;4.884;2023-06-24T03:11:14;0.30;;;0.30;;
10446;SDS011;70909;45.768;4.884;2023-06-24T03:13:43;0.30;;;0.30;;
10446;SDS011;70909;45.768;4.884;2023-06-24T03:16:10;0.30;;;0.30;;
10446;SDS011;70909;45.768;4.884;2023-06-24T03:18:39;0.30;;;0.30;;
10446;SDS011;70909;45.768;4.884;2023-06-24T03:21:06;0.30;;;0.30;;
10446;SDS011;70909;45.768;4.884;2023-06-24T03:23:33;0.30;;;0.30;;
10446;SDS011;70909;45.768;4.884;2023-06-24T03:26:00;0.40;;;0.40;;
10446;SDS011;70909;45.768;4.884;2023-06-24T03:28:28;0.30;;;0.30;;
10446;SDS011;70909;45.768;4.884;2023-06-24T03:30:56;0.30;;;0.30;;
10446;SDS011;70909;45.768;4.884;2023-06-24T03:33:23;0.30;;;0.30;;
10446;SDS011;70909;45.768;4.884;2023-06-24T03:35:51;0.30;;;0.30;;
10446;SDS011;70909;45.768;4.884;2023-06-24T03:38:18;0.30;;;0.30;;
10446;SDS011;70909;45.768;4.884;2023-06-24T03:40:46;0.40;;;0.40;;
10446;SDS011;70909;45.768;4.884;2023-06-24T03:43:12;0.30;;;0.30;;
10446;SDS011;70909;45.768;4.884;2023-06-24T03:45:39;0.30;;;0.30;;
10446;SDS011;70909;45.768;4.884;2023-06-24T03:48:07;0.30;;;0.30;;
10446;SDS011;70909;45.768;4.884;2023-06-24T03:50:34;0.30;;;0.30;;
10446;SDS011;70909;45.768;4.884;2023-06-24T03:53:01;0.30;;;0.30;;
10446;SDS011;70909;45.768;4.884;2023-06-24T03:55:28;0.33;;;0.33;;
10446;SDS011;70909;45.768;4.884;2023-06-24T03:57:55;0.30;;;0.30;;
10446;SDS011;70909;45.768;4.884;2023-06-24T04:00:22;0.30;;;0.30;;
10446;SDS011;70909;45.768;4.884;2023-06-24T04:02:49;0.30;;;0.30;;
10446;SDS011;70909;45.768;4.884;2023-06-24T04:05:19;0.40;;;0.40;;
10446;SDS011;70909;45.768;4.884;2023-06-24T04:07:46;0.30;;;0.30;;
10446;SDS011;70909;45.768;4.884;2023-06-24T04:10:13;0.30;;;0.30;;
10446;SDS011;70909;45.768;4.884;2023-06-24T04:12:39;0.40;;;0.40;;
10446;SDS011;70909;45.768;4.884;2023-06-24T04:15:07;0.30;;;0.30;;
10446;SDS011;70909;45.768;4.884;2023-06-24T04:17:34;0.30;;;0.30;;
10446;SDS011;70909;45.768;4.884;2023-06-24T04:20:01;0.30;;;0.30;;
10446;SDS011;70909;45.768;4.884;2023-06-24T04:22:32;0.30;;;0.30;;
10446;SDS011;70909;45.768;4.884;2023-06-24T04:24:59;0.40;;;0.40;;
10446;SDS011;70909;45.768;4.884;2023-06-24T04:27:25;0.30;;;0.30;;
10446;SDS011;70909;45.768;4.884;2023-06-24T04:29:52;0.30;;;0.30;;
10446;SDS011;70909;45.768;4.884;2023-06-24T04:32:19;0.30;;;0.30;;
10446;SDS011;70909;45.768;4.884;2023-06-24T04:34:46;0.30;;;0.30;;
10446;SDS011;70909;45.768;4.884;2023-06-24T04:37:12;0.30;;;0.30;;
10446;SDS011;70909;45.768;4.884;2023-06-24T04:39:41;0.40;;;0.40;;
10446;SDS011;70909;45.768;4.884;2023-06-24T04:42:09;0.40;;;0.40;;
10446;SDS011;70909;45.768;4.884;2023-06-24T04:44:36;0.30;;;0.30;;
10446;SDS011;70909;45.768;4.884;2023-06-24T04:47:03;0.30;;;0.30;;
10446;SDS011;70909;45.768;4.884;2023-06-24T04:49:30;0.30;;;0.30;;
10446;SDS011;70909;45.768;4.884;2023-06-24T04:51:59;0.40;;;0.40;;
10446;SDS011;70909;45.768;4.884;2023-06-24T04:54:26;0.40;;;0.40;;
10446;SDS011;70909;45.768;4.884;2023-06-24T04:56:54;0.30;;;0.30;;
10446;SDS011;70909;45.768;4.884;2023-06-24T04:59:22;0.30;;;0.30;;
10446;SDS011;70909;45.768;4.884;2023-06-24T05:01:49;0.40;;;0.40;;
10446;SDS011;70909;45.768;4.884;2023-06-24T05:04:16;0.30;;;0.30;;
10446;SDS011;70909;45.768;4.884;2023-06-24T05:06:43;0.40;;;0.40;;
10446;SDS011;70909;45.768;4.884;2023-06-24T05:09:10;0.40;;;0.40;;
10446;SDS011;70909;45.768;4.884;2023-06-24T05:11:38;0.30;;;0.30;;
10446;SDS011;70909;45.768;4.884;2023-06-24T05:14:07;0.30;;;0.30;;
10446;SDS011;70909;45.768;4.884;2023-06-24T05:16:33;0.40;;;0.40;;
10446;SDS011;70909;45.768;4.884;2023-06-24T05:19:00;0.30;;;0.30;;
10446;SDS011;70909;45.768;4.884;2023-06-24T05:21:27;0.37;;;0.37;;
10446;SDS011;70909;45.768;4.884;2023-06-24T05:23:54;0.30;;;0.30;;
10446;SDS011;70909;45.768;4.884;2023-06-24T05:26:21;0.37;;;0.37;;
10446;SDS011;70909;45.768;4.884;2023-06-24T05:28:48;0.40;;;0.40;;
10446;SDS011;70909;45.768;4.884;2023-06-24T05:31:16;0.30;;;0.30;;
10446;SDS011;70909;45.768;4.884;2023-06-24T05:33:43;0.30;;;0.30;;
10446;SDS011;70909;45.768;4.884;2023-06-24T05:36:10;0.30;;;0.30;;
10446;SDS011;70909;45.768;4.884;2023-06-24T05:38:37;0.30;;;0.30;;
10446;SDS011;70909;45.768;4.884;2023-06-24T05:41:03;0.30;;;0.30;;
10446;SDS011;70909;45.768;4.884;2023-06-24T05:43:30;0.40;;;0.40;;
10446;SDS011;70909;45.768;4.884;2023-06-24T05:45:57;0.30;;;0.30;;
10446;SDS011;70909;45.768;4.884;2023-06-24T05:48:25;0.30;;;0.30;;
10446;SDS011;70909;45.768;4.884;2023-06-24T05:50:52;0.30;;;0.30;;
10446;SDS011;70909;45.768;4.884;2023-06-24T05:53:19;0.30;;;0.30;;
10446;SDS011;70909;45.768;4.884;2023-06-24T05:55:45;0.40;;;0.40;;
10446;SDS011;70909;45.768;4.884;2023-06-24T05:58:13;0.30;;;0.30;;
10446;SDS011;70909;45.768;4.884;2023-06-24T06:00:40;0.40;;;0.40;;
10446;SDS011;70909;45.768;4.884;2023-06-24T06:03:07;0.30;;;0.30;;
10446;SDS011;70909;45.768;4.884;2023-06-24T06:05:35;0.30;;;0.30;;
10446;SDS011;70909;45.768;4.884;2023-06-24T06:08:02;0.30;;;0.30;;
10446;SDS011;70909;45.768;4.884;2023-06-24T06:10:29;0.20;;;0.20;;
10446;SDS011;70909;45.768;4.884;2023-06-24T06:12:56;0.20;;;0.20;;
10446;SDS011;70909;45.768;4.884;2023-06-24T06:15:23;0.27;;;0.27;;
10446;SDS011;70909;45.768;4.884;2023-06-24T06:17:50;0.30;;;0.30;;
10446;SDS011;70909;45.768;4.884;2023-06-24T06:20:17;0.20;;;0.20;;
10446;SDS011;70909;45.768;4.884;2023-06-24T06:22:46;0.20;;;0.20;;
10446;SDS011;70909;45.768;4.884;2023-06-24T06:25:12;0.20;;;0.20;;
10446;SDS011;70909;45.768;4.884;2023-06-24T06:27:39;0.20;;;0.20;;
10446;SDS011;70909;45.768;4.884;2023-06-24T06:30:06;0.20;;;0.20;;
10446;SDS011;70909;45.768;4.884;2023-06-24T06:32:34;0.20;;;0.20;;
10446;SDS011;70909;45.768;4.884;2023-06-24T06:35:00;0.20;;;0.20;;
10446;SDS011;70909;45.768;4.884;2023-06-24T06:37:27;0.20;;;0.20;;
10446;SDS011;70909;45.768;4.884;2023-06-24T06:39:55;0.20;;;0.20;;
10446;SDS011;70909;45.768;4.884;2023-06-24T06:42:22;0.20;;;0.20;;
10446;SDS011;70909;45.768;4.884;2023-06-24T06:44:49;0.20;;;0.20;;
10446;SDS011;70909;45.768;4.884;2023-06-24T06:47:16;0.30;;;0.30;;
10446;SDS011;70909;45.768;4.884;2023-06-24T06:49:43;0.20;;;0.20;;
10446;SDS011;70909;45.768;4.884;2023-06-24T06:52:10;0.20;;;0.20;;
10446;SDS011;70909;45.768;4.884;2023-06-24T06:54:36;0.20;;;0.20;;
10446;SDS011;70909;45.768;4.884;2023-06-24T06:57:05;0.20;;;0.20;;
10446;SDS011;70909;45.768;4.884;2023-06-24T06:59:32;0.10;;;0.10;;
10446;SDS011;70909;45.768;4.884;2023-06-24T07:01:59;0.20;;;0.20;;
10446;SDS011;70909;45.768;4.884;2023-06-24T07:04:25;0.10;;;0.10;;
10446;SDS011;70909;45.768;4.884;2023-06-24T07:06:52;0.10;;;0.10;;
10446;SDS011;70909;45.768;4.884;2023-06-24T07:09:19;0.08;;;0.08;;
10446;SDS011;70909;45.768;4.884;2023-06-24T07:11:46;0.00;;;0.00;;
10446;SDS011;70909;45.768;4.884;2023-06-24T07:14:14;0.00;;;0.00;;
10446;SDS011;70909;45.768;4.884;2023-06-24T07:16:41;0.00;;;0.00;;
10446;SDS011;70909;45.768;4.884;2023-06-24T07:19:07;0.00;;;0.00;;
10446;SDS011;70909;45.768;4.884;2023-06-24T07:21:34;0.00;;;0.00;;
10446;SDS011;70909;45.768;4.884;2023-06-24T07:24:01;0.00;;;0.00;;
10446;SDS011;70909;45.768;4.884;2023-06-24T07:26:28;0.00;;;0.00;;
10446;SDS011;70909;45.768;4.884;2023-06-24T07:28:56;0.00;;;0.00;;
10446;SDS011;70909;45.768;4.884;2023-06-24T07:31:25;0.00;;;0.00;;
10446;SDS011;70909;45.768;4.884;2023-06-24T07:33:52;0.00;;;0.00;;
10446;SDS011;70909;45.768;4.884;2023-06-24T07:36:18;0.00;;;0.00;;
10446;SDS011;70909;45.768;4.884;2023-06-24T07:38:45;0.00;;;0.00;;
10446;SDS011;70909;45.768;4.884;2023-06-24T07:41:12;0.00;;;0.00;;
10446;SDS011;70909;45.768;4.884;2023-06-24T07:43:39;0.00;;;0.00;;
10446;SDS011;70909;45.768;4.884;2023-06-24T07:46:05;0.00;;;0.00;;
10446;SDS011;70909;45.768;4.884;2023-06-24T07:48:34;0.00;;;0.00;;
10446;SDS011;70909;45.768;4.884;2023-06-24T07:51:01;0.00;;;0.00;;
10446;SDS011;70909;45.768;4.884;2023-06-24T07:53:27;0.00;;;0.00;;
10446;SDS011;70909;45.768;4.884;2023-06-24T07:55:54;0.00;;;0.00;;
10446;SDS011;70909;45.768;4.884;2023-06-24T07:58:21;0.00;;;0.00;;
10446;SDS011;70909;45.768;4.884;2023-06-24T08:00:48;0.00;;;0.00;;
10446;SDS011;70909;45.768;4.884;2023-06-24T08:03:14;0.00;;;0.00;;
10446;SDS011;70909;45.768;4.884;2023-06-24T08:05:43;0.00;;;0.00;;
10446;SDS011;70909;45.768;4.884;2023-06-24T08:08:09;0.00;;;0.00;;
10446;SDS011;70909;45.768;4.884;2023-06-24T08:10:36;0.00;;;0.00;;
10446;SDS011;70909;45.768;4.884;2023-06-24T08:13:03;0.00;;;0.00;;
10446;SDS011;70909;45.768;4.884;2023-06-24T08:15:30;0.00;;;0.00;;
10446;SDS011;70909;45.768;4.884;2023-06-24T08:17:56;0.00;;;0.00;;
10446;SDS011;70909;45.768;4.884;2023-06-24T08:20:23;0.00;;;0.00;;
10446;SDS011;70909;45.768;4.884;2023-06-24T08:22:51;0.00;;;0.00;;
10446;SDS011;70909;45.768;4.884;2023-06-24T08:25:18;0.00;;;0.00;;
10446;SDS011;70909;45.768;4.884;2023-06-24T08:27:45;0.00;;;0.00;;
10446;SDS011;70909;45.768;4.884;2023-06-24T08:30:12;0.00;;;0.00;;
10446;SDS011;70909;45.768;4.884;2023-06-24T08:32:40;0.00;;;0.00;;
10446;SDS011;70909;45.768;4.884;2023-06-24T08:35:07;0.00;;;0.00;;
10446;SDS011;70909;45.768;4.884;2023-06-24T08:37:35;0.00;;;0.00;;
10446;SDS011;70909;45.768;4.884;2023-06-24T08:40:04;0.00;;;0.00;;
10446;SDS011;70909;45.768;4.884;2023-06-24T08:42:32;0.00;;;0.00;;
10446;SDS011;70909;45.768;4.884;2023-06-24T08:44:59;0.00;;;0.00;;
10446;SDS011;70909;45.768;4.884;2023-06-24T08:47:25;0.00;;;0.00;;
10446;SDS011;70909;45.768;4.884;2023-06-24T08:49:55;0.00;;;0.00;;
10446;SDS011;70909;45.768;4.884;2023-06-24T08:52:29;0.00;;;0.00;;
10446;SDS011;70909;45.768;4.884;2023-06-24T08:54:58;0.00;;;0.00;;
10446;SDS011;70909;45.768;4.884;2023-06-24T08:57:28;0.00;;;0.00;;
10446;SDS011;70909;45.768;4.884;2023-06-24T08:59:55;0.00;;;0.00;;
10446;SDS011;70909;45.768;4.884;2023-06-24T09:02:22;0.00;;;0.00;;
10446;SDS011;70909;45.768;4.884;2023-06-24T09:04:50;0.00;;;0.00;;
10446;SDS011;70909;45.768;4.884;2023-06-24T09:07:23;0.00;;;0.00;;
10446;SDS011;70909;45.768;4.884;2023-06-24T09:09:53;0.00;;;0.00;;
10446;SDS011;70909;45.768;4.884;2023-06-24T09:12:19;0.00;;;0.00;;
10446;SDS011;70909;45.768;4.884;2023-06-24T09:14:49;0.00;;;0.00;;
10446;SDS011;70909;45.768;4.884;2023-06-24T09:17:16;0.00;;;0.00;;
10446;SDS011;70909;45.768;4.884;2023-06-24T09:19:43;0.00;;;0.00;;
10446;SDS011;70909;45.768;4.884;2023-06-24T09:22:10;0.00;;;0.00;;
10446;SDS011;70909;45.768;4.884;2023-06-24T09:24:42;0.00;;;0.00;;
10446;SDS011;70909;45.768;4.884;2023-06-24T09:27:11;0.00;;;0.00;;
10446;SDS011;70909;45.768;4.884;2023-06-24T09:29:39;0.00;;;0.00;;
10446;SDS011;70909;45.768;4.884;2023-06-24T09:32:08;0.00;;;0.00;;
10446;SDS011;70909;45.768;4.884;2023-06-24T09:34:36;0.00;;;0.00;;
10446;SDS011;70909;45.768;4.884;2023-06-24T09:37:03;0.00;;;0.00;;
10446;SDS011;70909;45.768;4.884;2023-06-24T09:39:34;0.00;;;0.00;;
10446;SDS011;70909;45.768;4.884;2023-06-24T09:42:02;0.00;;;0.00;;
10446;SDS011;70909;45.768;4.884;2023-06-24T09:44:31;0.00;;;0.00;;
10446;SDS011;70909;45.768;4.884;2023-06-24T09:46:58;0.00;;;0.00;;
10446;SDS011;70909;45.768;4.884;2023-06-24T09:49:27;0.00;;;0.00;;
10446;SDS011;70909;45.768;4.884;2023-06-24T09:51:55;0.00;;;0.00;;
10446;SDS011;70909;45.768;4.884;2023-06-24T09:54:24;0.00;;;0.00;;
10446;SDS011;70909;45.768;4.884;2023-06-24T09:56:53;0.00;;;0.00;;
10446;SDS011;70909;45.768;4.884;2023-06-24T09:59:22;0.00;;;0.00;;
10446;SDS011;70909;45.768;4.884;2023-06-24T10:01:51;0.00;;;0.00;;
10446;SDS011;70909;45.768;4.884;2023-06-24T10:04:20;0.00;;;0.00;;
10446;SDS011;70909;45.768;4.884;2023-06-24T10:06:49;0.00;;;0.00;;
10446;SDS011;70909;45.768;4.884;2023-06-24T10:09:16;0.00;;;0.00;;
10446;SDS011;70909;45.768;4.884;2023-06-24T10:11:44;0.00;;;0.00;;
10446;SDS011;70909;45.768;4.884;2023-06-24T10:14:11;0.00;;;0.00;;
10446;SDS011;70909;45.768;4.884;2023-06-24T10:16:38;0.00;;;0.00;;
10446;SDS011;70909;45.768;4.884;2023-06-24T10:19:06;0.00;;;0.00;;
10446;SDS011;70909;45.768;4.884;2023-06-24T10:21:45;0.00;;;0.00;;
10446;SDS011;70909;45.768;4.884;2023-06-24T10:24:29;0.00;;;0.00;;
10446;SDS011;70909;45.768;4.884;2023-06-24T10:27:00;0.00;;;0.00;;
10446;SDS011;70909;45.768;4.884;2023-06-24T10:29:32;0.00;;;0.00;;
10446;SDS011;70909;45.768;4.884;2023-06-24T10:32:02;0.00;;;0.00;;
10446;SDS011;70909;45.768;4.884;2023-06-24T10:34:31;0.00;;;0.00;;
10446;SDS011;70909;45.768;4.884;2023-06-24T10:37:08;0.00;;;0.00;;
10446;SDS011;70909;45.768;4.884;2023-06-24T10:39:50;0.00;;;0.00;;
10446;SDS011;70909;45.768;4.884;2023-06-24T10:42:32;0.00;;;0.00;;
10446;SDS011;70909;45.768;4.884;2023-06-24T10:45:16;0.00;;;0.00;;
10446;SDS011;70909;45.768;4.884;2023-06-24T10:47:45;0.00;;;0.00;;
10446;SDS011;70909;45.768;4.884;2023-06-24T10:50:13;0.00;;;0.00;;
10446;SDS011;70909;45.768;4.884;2023-06-24T10:52:41;0.00;;;0.00;;
10446;SDS011;70909;45.768;4.884;2023-06-24T10:55:11;0.00;;;0.00;;
10446;SDS011;70909;45.768;4.884;2023-06-24T10:57:40;0.00;;;0.00;;
10446;SDS011;70909;45.768;4.884;2023-06-24T11:00:07;0.00;;;0.00;;
10446;SDS011;70909;45.768;4.884;2023-06-24T11:02:35;0.00;;;0.00;;
10446;SDS011;70909;45.768;4.884;2023-06-24T11:05:02;0.00;;;0.00;;
10446;SDS011;70909;45.768;4.884;2023-06-24T11:07:31;0.00;;;0.00;;
10446;SDS011;70909;45.768;4.884;2023-06-24T11:10:01;0.00;;;0.00;;
10446;SDS011;70909;45.768;4.884;2023-06-24T11:12:31;0.00;;;0.00;;
10446;SDS011;70909;45.768;4.884;2023-06-24T11:14:59;0.00;;;0.00;;
10446;SDS011;70909;45.768;4.884;2023-06-24T11:17:27;0.00;;;0.00;;
10446;SDS011;70909;45.768;4.884;2023-06-24T11:19:54;0.00;;;0.00;;
10446;SDS011;70909;45.768;4.884;2023-06-24T11:22:21;0.00;;;0.00;;
10446;SDS011;70909;45.768;4.884;2023-06-24T11:24:49;0.00;;;0.00;;
10446;SDS011;70909;45.768;4.884;2023-06-24T11:27:16;0.00;;;0.00;;
10446;SDS011;70909;45.768;4.884;2023-06-24T11:29:51;0.00;;;0.00;;
10446;SDS011;70909;45.768;4.884;2023-06-24T11:32:18;0.00;;;0.00;;
10446;SDS011;70909;45.768;4.884;2023-06-24T11:34:46;0.00;;;0.00;;
10446;SDS011;70909;45.768;4.884;2023-06-24T11:37:13;0.00;;;0.00;;
10446;SDS011;70909;45.768;4.884;2023-06-24T11:39:41;0.00;;;0.00;;
10446;SDS011;70909;45.768;4.884;2023-06-24T11:42:09;0.00;;;0.00;;
10446;SDS011;70909;45.768;4.884;2023-06-24T11:44:40;0.00;;;0.00;;
10446;SDS011;70909;45.768;4.884;2023-06-24T11:47:10;0.00;;;0.00;;
10446;SDS011;70909;45.768;4.884;2023-06-24T11:49:47;0.00;;;0.00;;
10446;SDS011;70909;45.768;4.884;2023-06-24T11:52:14;0.00;;;0.00;;
10446;SDS011;70909;45.768;4.884;2023-06-24T11:54:41;0.00;;;0.00;;
10446;SDS011;70909;45.768;4.884;2023-06-24T11:57:09;0.00;;;0.00;;
10446;SDS011;70909;45.768;4.884;2023-06-24T11:59:37;0.00;;;0.00;;
10446;SDS011;70909;45.768;4.884;2023-06-24T12:02:04;0.00;;;0.00;;
10446;SDS011;70909;45.768;4.884;2023-06-24T12:04:33;0.00;;;0.00;;
10446;SDS011;70909;45.768;4.884;2023-06-24T12:07:02;0.00;;;0.00;;
10446;SDS011;70909;45.768;4.884;2023-06-24T12:09:29;0.00;;;0.00;;
10446;SDS011;70909;45.768;4.884;2023-06-24T12:11:56;0.00;;;0.00;;
10446;SDS011;70909;45.768;4.884;2023-06-24T12:14:23;0.00;;;0.00;;
10446;SDS011;70909;45.768;4.884;2023-06-24T12:16:50;0.00;;;0.00;;
10446;SDS011;70909;45.768;4.884;2023-06-24T12:19:16;0.00;;;0.00;;
10446;SDS011;70909;45.768;4.884;2023-06-24T12:21:46;0.00;;;0.00;;
10446;SDS011;70909;45.768;4.884;2023-06-24T12:24:13;0.00;;;0.00;;
10446;SDS011;70909;45.768;4.884;2023-06-24T12:26:40;0.00;;;0.00;;
10446;SDS011;70909;45.768;4.884;2023-06-24T12:29:07;0.00;;;0.00;;
10446;SDS011;70909;45.768;4.884;2023-06-24T12:31:33;0.00;;;0.00;;
10446;SDS011;70909;45.768;4.884;2023-06-24T12:34:00;0.00;;;0.00;;
10446;SDS011;70909;45.768;4.884;2023-06-24T12:36:27;0.00;;;0.00;;
10446;SDS011;70909;45.768;4.884;2023-06-24T12:38:55;0.00;;;0.00;;
10446;SDS011;70909;45.768;4.884;2023-06-24T12:41:22;0.00;;;0.00;;
10446;SDS011;70909;45.768;4.884;2023-06-24T12:43:48;0.00;;;0.00;;
10446;SDS011;70909;45.768;4.884;2023-06-24T12:46:15;0.00;;;0.00;;
10446;SDS011;70909;45.768;4.884;2023-06-24T12:48:42;0.00;;;0.00;;
10446;SDS011;70909;45.768;4.884;2023-06-24T12:51:09;0.00;;;0.00;;
10446;SDS011;70909;45.768;4.884;2023-06-24T12:53:36;0.00;;;0.00;;
10446;SDS011;70909;45.768;4.884;2023-06-24T12:56:04;0.00;;;0.00;;
10446;SDS011;70909;45.768;4.884;2023-06-24T12:58:31;0.00;;;0.00;;
10446;SDS011;70909;45.768;4.884;2023-06-24T13:00:58;0.00;;;0.00;;
10446;SDS011;70909;45.768;4.884;2023-06-24T13:03:25;0.00;;;0.00;;
10446;SDS011;70909;45.768;4.884;2023-06-24T13:05:51;0.00;;;0.00;;
10446;SDS011;70909;45.768;4.884;2023-06-24T13:08:18;0.00;;;0.00;;
10446;SDS011;70909;45.768;4.884;2023-06-24T13:10:45;0.00;;;0.00;;
10446;SDS011;70909;45.768;4.884;2023-06-24T13:13:13;0.00;;;0.00;;
10446;SDS011;70909;45.768;4.884;2023-06-24T13:15:40;0.00;;;0.00;;
10446;SDS011;70909;45.768;4.884;2023-06-24T13:18:07;0.00;;;0.00;;
10446;SDS011;70909;45.768;4.884;2023-06-24T13:20:33;0.00;;;0.00;;
10446;SDS011;70909;45.768;4.884;2023-06-24T13:23:00;0.00;;;0.00;;
10446;SDS011;70909;45.768;4.884;2023-06-24T13:25:27;0.00;;;0.00;;
10446;SDS011;70909;45.768;4.884;2023-06-24T13:27:54;0.00;;;0.00;;
10446;SDS011;70909;45.768;4.884;2023-06-24T13:30:22;0.00;;;0.00;;
10446;SDS011;70909;45.768;4.884;2023-06-24T13:32:49;0.00;;;0.00;;
10446;SDS011;70909;45.768;4.884;2023-06-24T13:35:15;0.00;;;0.00;;
10446;SDS011;70909;45.768;4.884;2023-06-24T13:37:42;0.00;;;0.00;;
10446;SDS011;70909;45.768;4.884;2023-06-24T13:40:09;0.00;;;0.00;;
10446;SDS011;70909;45.768;4.884;2023-06-24T13:42:37;0.00;;;0.00;;
10446;SDS011;70909;45.768;4.884;2023-06-24T13:45:04;0.00;;;0.00;;
10446;SDS011;70909;45.768;4.884;2023-06-24T13:47:33;0.00;;;0.00;;
10446;SDS011;70909;45.768;4.884;2023-06-24T13:49:59;0.00;;;0.00;;
10446;SDS011;70909;45.768;4.884;2023-06-24T13:52:26;0.00;;;0.00;;
10446;SDS011;70909;45.768;4.884;2023-06-24T13:54:53;0.00;;;0.00;;
10446;SDS011;70909;45.768;4.884;2023-06-24T13:57:20;0.00;;;0.00;;
10446;SDS011;70909;45.768;4.884;2023-06-24T13:59:47;0.00;;;0.00;;
10446;SDS011;70909;45.768;4.884;2023-06-24T14:02:14;0.00;;;0.00;;
10446;SDS011;70909;45.768;4.884;2023-06-24T14:04:42;0.00;;;0.00;;
10446;SDS011;70909;45.768;4.884;2023-06-24T14:07:09;0.00;;;0.00;;
10446;SDS011;70909;45.768;4.884;2023-06-24T14:09:36;0.00;;;0.00;;
10446;SDS011;70909;45.768;4.884;2023-06-24T14:12:03;0.00;;;0.00;;
10446;SDS011;70909;45.768;4.884;2023-06-24T14:14:31;0.00;;;0.00;;
10446;SDS011;70909;45.768;4.884;2023-06-24T14:16:57;0.00;;;0.00;;
10446;SDS011;70909;45.768;4.884;2023-06-24T14:19:24;0.00;;;0.00;;
10446;SDS011;70909;45.768;4.884;2023-06-24T14:21:52;0.00;;;0.00;;
10446;SDS011;70909;45.768;4.884;2023-06-24T14:24:19;0.00;;;0.00;;
10446;SDS011;70909;45.768;4.884;2023-06-24T14:26:46;0.00;;;0.00;;
10446;SDS011;70909;45.768;4.884;2023-06-24T14:29:14;0.00;;;0.00;;
10446;SDS011;70909;45.768;4.884;2023-06-24T14:31:41;0.00;;;0.00;;
10446;SDS011;70909;45.768;4.884;2023-06-24T14:34:08;0.00;;;0.00;;
10446;SDS011;70909;45.768;4.884;2023-06-24T14:36:35;0.00;;;0.00;;
10446;SDS011;70909;45.768;4.884;2023-06-24T14:39:03;0.00;;;0.00;;
10446;SDS011;70909;45.768;4.884;2023-06-24T14:41:30;0.00;;;0.00;;
10446;SDS011;70909;45.768;4.884;2023-06-24T14:43:57;0.00;;;0.00;;
10446;SDS011;70909;45.768;4.884;2023-06-24T14:46:24;0.00;;;0.00;;
10446;SDS011;70909;45.768;4.884;2023-06-24T14:48:51;0.00;;;0.00;;
10446;SDS011;70909;45.768;4.884;2023-06-24T14:51:17;0.00;;;0.00;;
10446;SDS011;70909;45.768;4.884;2023-06-24T14:53:44;0.00;;;0.00;;